Time;durP1;ratioP1;P1;durP2;ratioP2;P2;SDS_P1;SDS_P2;PMS_P1;PMS_P2;Temp;Humidity;BMP_temperature;BMP_pressure;BME280_temperature;BME280_humidity;BME280_pressure;Samples;Min_cycle;Max_cycle;Signal;HPM_P1;HPM_P2
2022/12/17 13:07:29;;;;;;;30.70;20.40;;;9.90;29.10;;;;;;4998304;28;20430;-76
2022/12/17 13:10:27;;;;;;;33.40;21.87;;;9.10;28.30;;;;;;4997155;28;20458;-75
2022/12/17 13:13:24;;;;;;;32.40;22.23;;;7.50;29.80;;;;;;4990229;28;20941;-74
2022/12/17 13:16:31;;;;;;;33.00;21.75;;;5.70;35.10;;;;;;4998716;28;20231;-75
2022/12/17 13:19:34;;;;;;;37.97;24.33;;;3.90;46.70;;;;;;4991114;28;20238;-75
2022/12/17 13:22:29;;;;;;;38.40;25.85;;;2.70;63.00;;;;;;4995134;28;20211;-75
2022/12/17 13:25:17;;;;;;;38.13;24.20;;;1.80;79.40;;;;;;4988909;28;20338;-74
2022/12/17 13:28:03;;;;;;;37.47;26.90;;;1.10;90.90;;;;;;4995681;28;20226;-75
2022/12/17 13:30:49;;;;;;;42.88;27.15;;;0.30;99.80;;;;;;4991586;28;20350;-74
2022/12/17 13:33:43;;;;;;;43.35;29.50;;;-0.40;99.90;;;;;;4985324;28;20290;-75
2022/12/17 13:36:40;;;;;;;40.30;27.63;;;-1.00;99.90;;;;;;4984948;28;20203;-74
2022/12/17 13:39:39;;;;;;;43.38;27.75;;;-1.20;99.90;;;;;;4990898;28;20227;-76
2022/12/17 13:42:29;;;;;;;41.47;27.88;;;-1.20;99.90;;;;;;4988213;28;20250;-75
2022/12/17 13:45:16;;;;;;;44.03;28.27;;;-1.30;99.90;;;;;;4988915;28;20331;-76
2022/12/17 13:48:02;;;;;;;41.58;27.58;;;-1.40;99.90;;;;;;4987103;28;20278;-73
2022/12/17 13:50:55;;;;;;;48.47;32.22;;;-1.50;99.90;;;;;;5029512;22;20237;-80
2022/12/17 13:53:52;;;;;;;42.22;28.27;;;-1.70;99.90;;;;;;5028647;28;20210;-79
2022/12/17 13:56:38;;;;;;;42.25;28.98;;;-1.90;99.90;;;;;;5035870;28;20210;-80
2022/12/17 13:59:24;;;;;;;40.88;28.27;;;-2.10;99.90;;;;;;5029994;28;20319;-80
2022/12/17 14:02:24;;;;;;;46.13;29.48;;;-2.40;99.90;;;;;;5015427;28;20213;-80
2022/12/17 14:05:23;;;;;;;54.28;30.13;;;-2.50;99.90;;;;;;5017804;28;20206;-79
2022/12/17 14:08:12;;;;;;;44.25;30.83;;;-2.50;99.90;;;;;;5015649;28;20225;-79
2022/12/17 14:14:00;;;;;;;52.50;34.15;;;-2.60;99.90;;;;;;5014301;28;20221;-80
2022/12/17 14:16:46;;;;;;;55.33;34.88;;;-2.60;99.90;;;;;;5026578;28;20198;-80
2022/12/17 14:19:33;;;;;;;47.75;34.00;;;-2.70;99.90;;;;;;5014593;28;20238;-79
2022/12/17 14:22:28;;;;;;;50.90;34.70;;;-2.60;99.90;;;;;;5011834;28;20281;-79
2022/12/17 14:25:16;;;;;;;50.30;32.80;;;-2.50;99.90;;;;;;5017377;28;20267;-78
2022/12/17 14:28:06;;;;;;;52.17;34.25;;;-2.50;99.90;;;;;;5014838;28;20742;-79
2022/12/17 14:31:02;;;;;;;47.17;31.77;;;-2.50;99.90;;;;;;5017754;28;20226;-79
2022/12/17 14:33:59;;;;;;;51.60;34.00;;;-2.50;99.90;;;;;;5011410;28;20205;-75
2022/12/17 14:36:45;;;;;;;54.90;36.35;;;-2.50;99.90;;;;;;5020700;28;20472;-78
2022/12/17 14:39:32;;;;;;;51.17;35.10;;;-2.70;99.90;;;;;;5020387;28;20213;-77
2022/12/17 14:42:28;;;;;;;51.88;33.58;;;-2.80;99.90;;;;;;5015582;28;20209;-80
2022/12/17 14:45:25;;;;;;;51.15;34.38;;;-2.70;99.90;;;;;;5022567;28;20320;-78
2022/12/17 14:48:15;;;;;;;49.10;33.20;;;-2.90;99.90;;;;;;5018754;28;20225;-79
2022/12/17 14:51:01;;;;;;;48.78;33.85;;;-3.00;99.90;;;;;;5015184;28;20481;-77
2022/12/17 14:53:47;;;;;;;56.88;33.95;;;-3.00;99.90;;;;;;5020477;28;20217;-79
2022/12/17 14:56:33;;;;;;;53.75;33.05;;;-3.00;99.90;;;;;;5008979;28;20203;-79
2022/12/17 14:59:30;;;;;;;51.20;34.83;;;-2.90;99.90;;;;;;5017006;28;20194;-79
2022/12/17 15:02:22;;;;;;;54.53;33.00;;;-3.10;99.90;;;;;;5015100;28;20288;-80
2022/12/17 15:05:13;;;;;;;51.40;32.50;;;-3.30;99.90;;;;;;5023709;28;20348;-80
2022/12/17 15:07:59;;;;;;;49.58;33.17;;;-3.30;99.90;;;;;;5016285;28;20621;-80
2022/12/17 15:10:45;;;;;;;52.20;35.40;;;-3.30;99.90;;;;;;5010193;28;20392;-79
2022/12/17 15:13:31;;;;;;;55.13;35.58;;;-3.30;99.90;;;;;;5013865;28;20206;-80
2022/12/17 15:16:16;;;;;;;55.47;33.88;;;-3.50;99.90;;;;;;5005926;28;20578;-80
2022/12/17 15:19:03;;;;;;;57.05;35.08;;;-3.50;99.90;;;;;;5013203;28;20242;-80
2022/12/17 15:21:49;;;;;;;49.05;33.42;;;-3.50;99.90;;;;;;5008760;28;20290;-80
2022/12/17 15:24:35;;;;;;;50.42;32.35;;;-3.30;99.90;;;;;;5012935;28;20203;-80
2022/12/17 15:27:21;;;;;;;55.05;34.63;;;-3.40;99.90;;;;;;5012344;28;20284;-79
2022/12/17 15:30:09;;;;;;;55.08;33.72;;;-3.60;99.90;;;;;;5009546;28;20321;-80
2022/12/17 15:32:55;;;;;;;53.45;34.75;;;-3.70;99.90;;;;;;5010204;28;20234;-79
2022/12/17 15:35:43;;;;;;;56.00;34.53;;;-3.60;99.90;;;;;;5010041;28;20206;-81
2022/12/17 15:38:28;;;;;;;52.03;34.85;;;-3.60;99.90;;;;;;5005204;28;20681;-80
2022/12/17 15:44:17;;;;;;;51.97;35.17;;;-3.90;99.90;;;;;;5013797;28;20214;-81
2022/12/17 15:47:03;;;;;;;54.70;36.40;;;-3.90;99.90;;;;;;5014575;28;20292;-80
2022/12/17 15:49:49;;;;;;;52.63;33.38;;;-4.00;99.90;;;;;;5014860;28;20253;-80
2022/12/17 15:52:36;;;;;;;53.92;35.10;;;-4.10;99.90;;;;;;5011871;28;20266;-79
2022/12/17 15:55:21;;;;;;;52.05;37.17;;;-4.20;99.90;;;;;;5005408;28;20206;-76
2022/12/17 15:58:09;;;;;;;58.78;36.10;;;-4.20;99.90;;;;;;5021279;28;20201;-77
2022/12/17 16:00:55;;;;;;;54.00;35.15;;;-4.20;99.90;;;;;;5007925;28;20227;-77
2022/12/17 16:03:41;;;;;;;53.30;35.38;;;-4.30;99.90;;;;;;5016973;28;20221;-78
2022/12/17 16:06:26;;;;;;;47.10;31.45;;;-4.30;99.90;;;;;;5006006;28;20343;-80
2022/12/17 16:09:13;;;;;;;58.80;36.47;;;-4.40;99.90;;;;;;5012810;28;20229;-80
2022/12/17 16:11:59;;;;;;;54.90;35.90;;;-4.50;99.90;;;;;;5007789;28;20197;-79
2022/12/17 16:14:45;;;;;;;63.72;39.13;;;-4.70;99.90;;;;;;5007367;28;20205;-79
2022/12/17 16:17:30;;;;;;;50.72;35.15;;;-4.60;99.90;;;;;;5012896;28;20658;-79
2022/12/17 16:20:16;;;;;;;49.90;35.45;;;-4.70;99.90;;;;;;5012342;28;20277;-79
2022/12/17 16:23:02;;;;;;;59.53;38.13;;;-4.80;99.90;;;;;;5020644;28;20670;-80
2022/12/17 16:25:57;;;;;;;52.75;37.53;;;-4.70;99.90;;;;;;5012881;28;20202;-80
2022/12/17 16:28:43;;;;;;;50.00;34.75;;;-4.80;99.90;;;;;;5013248;28;20242;-80
2022/12/17 16:31:29;;;;;;;54.22;34.08;;;-4.90;99.90;;;;;;5006479;28;20782;-80
2022/12/17 16:34:15;;;;;;;54.75;34.92;;;-5.10;99.90;;;;;;5015480;28;20214;-79
2022/12/17 16:37:00;;;;;;;50.35;33.55;;;-5.10;99.90;;;;;;5012373;28;20283;-79
2022/12/17 16:39:46;;;;;;;54.35;34.95;;;-5.20;99.90;;;;;;5002421;28;20222;-80
2022/12/17 16:42:33;;;;;;;56.58;36.53;;;-5.10;99.90;;;;;;5014256;28;20202;-80
2022/12/17 16:45:19;;;;;;;51.47;34.80;;;-5.20;99.90;;;;;;5014407;28;20288;-80
2022/12/17 16:48:05;;;;;;;51.53;35.42;;;-5.20;99.90;;;;;;5018522;28;20205;-80
2022/12/17 16:50:51;;;;;;;56.47;36.42;;;-5.30;99.90;;;;;;5016524;28;20723;-79
2022/12/17 16:53:37;;;;;;;53.83;35.38;;;-5.40;99.90;;;;;;5012169;28;20199;-79
2022/12/17 16:56:26;;;;;;;52.53;35.72;;;-5.50;99.90;;;;;;5018954;28;20573;-79
2022/12/17 16:59:14;;;;;;;49.25;33.00;;;-5.60;99.90;;;;;;5018399;28;20374;-78
2022/12/17 17:02:00;;;;;;;51.78;35.47;;;-5.60;99.90;;;;;;5019470;28;20342;-80
2022/12/17 17:04:45;;;;;;;57.15;35.72;;;-5.60;99.90;;;;;;5011296;28;20214;-79
2022/12/17 17:07:31;;;;;;;55.38;34.78;;;-5.70;99.90;;;;;;5027462;28;20569;-80
2022/12/17 17:10:17;;;;;;;51.00;33.75;;;-5.70;99.90;;;;;;5013280;28;20234;-79
2022/12/17 17:13:02;;;;;;;48.83;34.70;;;-5.70;99.90;;;;;;5019756;28;20294;-77
2022/12/17 17:15:49;;;;;;;52.30;34.92;;;-5.70;99.90;;;;;;5021166;28;20610;-78
2022/12/17 17:18:36;;;;;;;58.13;33.92;;;-5.70;99.90;;;;;;5005823;28;20274;-79
2022/12/17 17:21:28;;;;;;;57.72;36.78;;;-5.70;99.90;;;;;;5023601;28;20226;-79
2022/12/17 17:24:15;;;;;;;58.83;37.20;;;-5.60;99.90;;;;;;5020641;28;20210;-79
2022/12/17 17:27:01;;;;;;;56.92;35.25;;;-5.50;99.90;;;;;;5016983;28;20618;-79
2022/12/17 17:29:47;;;;;;;54.38;34.97;;;-5.50;99.90;;;;;;5011033;28;20230;-80
2022/12/17 17:32:34;;;;;;;55.95;36.53;;;-5.60;99.90;;;;;;5011855;28;20206;-78
2022/12/17 17:35:20;;;;;;;54.75;34.78;;;-5.60;99.90;;;;;;5023439;28;20206;-78
2022/12/17 17:38:05;;;;;;;52.95;33.78;;;-5.60;99.90;;;;;;5012420;28;20217;-80
2022/12/17 17:40:56;;;;;;;55.28;35.88;;;-5.60;99.90;;;;;;5018345;28;20221;-79
2022/12/17 17:43:42;;;;;;;54.85;37.17;;;-5.80;99.90;;;;;;5021345;28;20205;-79
2022/12/17 17:46:29;;;;;;;56.03;35.45;;;-5.90;99.90;;;;;;5011138;28;20920;-80
2022/12/17 17:49:16;;;;;;;54.20;36.45;;;-6.00;99.90;;;;;;5014148;28;20750;-79
2022/12/17 17:52:02;;;;;;;60.28;37.38;;;-6.00;99.90;;;;;;5020127;28;20198;-79
2022/12/17 17:54:48;;;;;;;57.22;36.55;;;-6.00;99.90;;;;;;5019318;28;20338;-79
2022/12/17 17:57:34;;;;;;;57.85;37.40;;;-5.90;99.90;;;;;;5023508;28;20205;-80
2022/12/17 18:00:20;;;;;;;50.53;35.38;;;-5.80;99.90;;;;;;5017526;28;20353;-79
2022/12/17 18:03:05;;;;;;;53.25;33.58;;;-5.70;99.90;;;;;;5022596;28;20221;-79
2022/12/17 18:05:53;;;;;;;55.47;35.88;;;-5.70;99.90;;;;;;5014670;28;20202;-79
2022/12/17 18:08:39;;;;;;;56.78;36.33;;;-5.90;99.90;;;;;;5003990;28;20615;-79
2022/12/17 18:11:26;;;;;;;52.63;34.42;;;-6.00;99.90;;;;;;5021382;28;20226;-79
2022/12/17 18:14:11;;;;;;;57.50;35.65;;;-6.10;99.90;;;;;;5013756;28;20235;-79
2022/12/17 18:16:57;;;;;;;54.45;35.22;;;-6.20;99.90;;;;;;5009456;28;20288;-80
2022/12/17 18:19:43;;;;;;;54.67;35.95;;;-6.30;99.90;;;;;;5010020;28;20221;-79
2022/12/17 18:22:30;;;;;;;57.63;35.97;;;-6.20;99.90;;;;;;5026802;28;20202;-80
2022/12/17 18:25:16;;;;;;;48.47;33.35;;;-6.20;99.90;;;;;;5019807;28;20210;-80
2022/12/17 18:28:02;;;;;;;54.55;37.95;;;-6.10;99.90;;;;;;5018922;28;20694;-80
2022/12/17 18:30:48;;;;;;;52.00;34.25;;;-6.20;99.90;;;;;;5005709;28;20253;-79
2022/12/17 18:33:33;;;;;;;53.90;35.88;;;-6.20;99.90;;;;;;5020528;28;20325;-80
2022/12/17 18:36:21;;;;;;;50.22;35.75;;;-6.20;99.90;;;;;;5018016;28;20309;-78
2022/12/17 18:39:11;;;;;;;52.45;35.33;;;-6.20;99.90;;;;;;5009214;28;20257;-80
2022/12/17 18:45:00;;;;;;;54.55;36.47;;;-6.20;99.90;;;;;;5021010;28;20730;-79
2022/12/17 18:47:45;;;;;;;54.90;35.22;;;-6.20;99.90;;;;;;5017957;28;20210;-79
2022/12/17 18:50:31;;;;;;;49.60;33.03;;;-6.10;99.90;;;;;;5011912;28;20230;-79
2022/12/17 18:53:17;;;;;;;56.10;36.10;;;-6.20;99.90;;;;;;5021180;28;20208;-79
2022/12/17 18:56:08;;;;;;;54.15;34.42;;;-6.30;99.90;;;;;;5016525;28;20672;-79
2022/12/17 18:58:55;;;;;;;56.60;34.92;;;-6.40;99.90;;;;;;5011553;28;20280;-79
2022/12/17 19:01:40;;;;;;;61.78;37.97;;;-6.60;99.90;;;;;;5014956;28;20344;-78
2022/12/17 19:04:27;;;;;;;61.42;37.95;;;-6.60;99.90;;;;;;5011157;28;20222;-80
2022/12/17 19:07:13;;;;;;;55.40;37.50;;;-6.70;99.90;;;;;;5011503;28;20206;-78
2022/12/17 19:09:58;;;;;;;52.95;35.15;;;-6.70;99.90;;;;;;5017839;28;20232;-80
2022/12/17 19:12:46;;;;;;;55.42;36.15;;;-6.60;99.90;;;;;;5013198;28;20751;-79
2022/12/17 19:15:31;;;;;;;59.67;36.85;;;-6.50;99.90;;;;;;5025144;28;20257;-78
2022/12/17 19:18:17;;;;;;;63.08;36.53;;;-6.50;99.90;;;;;;5018546;28;20591;-79
2022/12/17 19:21:03;;;;;;;53.78;35.95;;;-6.40;99.90;;;;;;5021183;28;20218;-78
2022/12/17 19:23:49;;;;;;;62.20;39.97;;;-6.40;99.90;;;;;;5012510;28;20194;-79
2022/12/17 19:26:35;;;;;;;51.90;36.42;;;-6.30;99.90;;;;;;5009818;28;20781;-79
2022/12/17 19:29:22;;;;;;;57.10;37.65;;;-6.40;99.90;;;;;;5017326;28;20210;-80
2022/12/17 19:32:08;;;;;;;71.03;45.00;;;-6.50;99.90;;;;;;5024647;28;20197;-80
2022/12/17 19:34:54;;;;;;;63.80;43.92;;;-6.80;99.90;;;;;;5022701;28;20208;-78
2022/12/17 19:37:39;;;;;;;60.47;41.10;;;-6.90;99.90;;;;;;5010008;28;20210;-79
2022/12/17 19:40:25;;;;;;;58.95;38.30;;;-6.90;99.90;;;;;;5014036;28;20605;-79
2022/12/17 19:43:11;;;;;;;61.10;39.53;;;-7.00;99.90;;;;;;5016824;28;20206;-79
2022/12/17 19:46:03;;;;;;;67.68;40.90;;;-7.00;99.90;;;;;;5014763;28;20201;-79
2022/12/17 19:48:50;;;;;;;64.85;39.30;;;-6.80;99.90;;;;;;5013262;28;20218;-79
2022/12/17 19:51:37;;;;;;;55.70;35.42;;;-6.70;99.90;;;;;;5026566;22;20350;-74
2022/12/17 19:54:23;;;;;;;55.10;37.20;;;-6.60;99.90;;;;;;5014756;28;20699;-74
2022/12/17 19:57:09;;;;;;;67.25;38.80;;;-6.60;99.90;;;;;;5003850;28;20666;-74
2022/12/17 19:59:54;;;;;;;60.55;38.13;;;-6.60;99.90;;;;;;5018164;28;20317;-74
2022/12/17 20:02:41;;;;;;;63.47;39.20;;;-6.70;99.90;;;;;;4990660;28;20203;-75
2022/12/17 20:05:27;;;;;;;57.28;38.33;;;-6.70;99.90;;;;;;4986229;28;20695;-74
2022/12/17 20:08:13;;;;;;;56.75;39.08;;;-6.60;99.90;;;;;;4986618;28;20207;-73
2022/12/17 20:10:59;;;;;;;59.38;38.95;;;-6.60;99.90;;;;;;5001754;28;20241;-74
2022/12/17 20:13:45;;;;;;;61.90;39.25;;;-6.70;99.90;;;;;;4989928;28;20207;-75
2022/12/17 20:16:33;;;;;;;62.90;39.30;;;-6.80;99.90;;;;;;4983737;28;20265;-75
2022/12/17 20:19:21;;;;;;;63.40;40.80;;;-6.90;99.90;;;;;;4994846;28;20214;-75
2022/12/17 20:22:07;;;;;;;56.58;35.95;;;-7.10;99.90;;;;;;4992376;28;20230;-74
2022/12/17 20:24:53;;;;;;;61.17;38.42;;;-7.00;99.90;;;;;;4992818;28;20227;-74
2022/12/17 20:27:39;;;;;;;71.78;44.50;;;-7.20;99.90;;;;;;4993742;28;20334;-74
2022/12/17 20:30:24;;;;;;;62.30;41.17;;;-7.10;99.90;;;;;;4998802;28;20239;-75
2022/12/17 20:33:10;;;;;;;60.20;41.45;;;-7.20;99.90;;;;;;4992387;28;20203;-74
2022/12/17 20:36:03;;;;;;;66.70;40.63;;;-7.20;99.90;;;;;;4985186;28;20310;-74
2022/12/17 20:38:49;;;;;;;68.60;44.15;;;-7.10;99.90;;;;;;4989425;28;20232;-75
2022/12/17 20:41:36;;;;;;;66.05;42.40;;;-7.10;99.90;;;;;;4992638;28;20309;-74
2022/12/17 20:44:21;;;;;;;71.10;44.53;;;-7.10;99.90;;;;;;4982602;28;20327;-75
2022/12/17 20:47:07;;;;;;;66.88;42.80;;;-7.10;99.90;;;;;;4986489;28;20206;-74
2022/12/17 20:49:53;;;;;;;76.82;46.20;;;-7.20;99.90;;;;;;4992168;28;20328;-75
2022/12/17 20:52:40;;;;;;;87.20;51.42;;;-7.20;99.90;;;;;;4986809;28;20211;-74
2022/12/17 20:55:26;;;;;;;107.22;58.67;;;-7.20;99.90;;;;;;4993219;28;20203;-74
2022/12/17 20:58:14;;;;;;;84.13;49.95;;;-7.30;99.90;;;;;;4996091;28;20579;-75
2022/12/17 21:01:06;;;;;;;94.18;53.58;;;-7.20;99.90;;;;;;4977482;28;20690;-74
2022/12/17 21:03:53;;;;;;;85.90;49.47;;;-7.30;99.90;;;;;;4985723;28;20199;-74
2022/12/17 21:06:40;;;;;;;84.55;49.20;;;-7.30;99.90;;;;;;4979353;28;20207;-74
2022/12/17 21:09:27;;;;;;;79.63;44.47;;;-7.20;99.90;;;;;;4995278;28;20592;-75
2022/12/17 21:12:13;;;;;;;101.22;50.70;;;-7.10;99.90;;;;;;4994738;28;20266;-75
2022/12/17 21:14:58;;;;;;;94.78;51.28;;;-7.00;99.90;;;;;;4980501;28;20207;-75
2022/12/17 21:17:44;;;;;;;100.13;54.63;;;-7.10;99.90;;;;;;4989079;28;20354;-75
2022/12/17 21:20:30;;;;;;;106.00;60.65;;;-7.20;99.90;;;;;;4995493;28;20366;-74
2022/12/17 21:23:15;;;;;;;110.78;62.60;;;-7.20;99.90;;;;;;4997181;28;20210;-74
2022/12/17 21:26:04;;;;;;;107.93;60.83;;;-7.30;99.90;;;;;;4985678;28;20223;-74
2022/12/17 21:28:53;;;;;;;100.78;58.38;;;-7.30;99.90;;;;;;4991263;28;20202;-74
2022/12/17 21:31:40;;;;;;;99.88;57.53;;;-7.20;99.90;;;;;;4988609;28;20611;-76
2022/12/17 21:34:28;;;;;;;83.18;51.70;;;-7.20;99.90;;;;;;4987509;28;20570;-74
2022/12/17 21:37:13;;;;;;;80.13;48.45;;;-7.10;99.90;;;;;;4987068;28;20219;-74
2022/12/17 21:40:00;;;;;;;81.00;49.85;;;-7.00;99.90;;;;;;4995624;28;20206;-75
2022/12/17 21:43:06;;;;;;;76.03;44.80;;;-6.90;99.90;;;;;;4990700;28;20207;-74
2022/12/17 21:45:56;;;;;;;68.20;42.35;;;-6.90;99.90;;;;;;4989801;28;20207;-75
2022/12/17 21:48:43;;;;;;;82.43;47.38;;;-6.90;99.90;;;;;;4996463;28;20206;-74
2022/12/17 21:51:30;;;;;;;69.57;44.35;;;-6.90;99.90;;;;;;4984145;28;20246;-74
2022/12/17 21:54:16;;;;;;;65.35;43.58;;;-7.00;99.90;;;;;;4982804;28;20220;-74
2022/12/17 21:57:02;;;;;;;70.95;46.20;;;-7.00;99.90;;;;;;4995907;28;20209;-76
2022/12/17 21:59:49;;;;;;;66.68;44.47;;;-7.10;99.90;;;;;;4998823;28;20595;-75
2022/12/17 22:02:34;;;;;;;78.43;46.38;;;-7.20;99.90;;;;;;4996464;28;20246;-74
2022/12/17 22:05:20;;;;;;;72.22;44.70;;;-7.30;99.90;;;;;;4985336;28;20292;-75
2022/12/17 22:08:06;;;;;;;68.80;46.78;;;-7.20;99.90;;;;;;4996839;28;20568;-75
2022/12/17 22:10:52;;;;;;;75.95;48.38;;;-7.20;99.90;;;;;;4982952;28;20338;-75
2022/12/17 22:16:46;;;;;;;72.28;46.47;;;-7.20;99.90;;;;;;4989863;28;20237;-75
2022/12/17 22:19:33;;;;;;;72.82;44.65;;;-7.00;99.90;;;;;;4991033;28;20274;-75
2022/12/17 22:22:18;;;;;;;76.53;48.72;;;-7.00;99.90;;;;;;4996200;28;20226;-71
2022/12/17 22:25:04;;;;;;;77.75;48.28;;;-7.00;99.90;;;;;;4978121;28;20223;-72
2022/12/17 22:27:50;;;;;;;73.45;47.70;;;-7.20;99.90;;;;;;5003561;28;20210;-73
2022/12/17 22:33:40;;;;;;;67.30;44.13;;;-7.40;99.90;;;;;;4990499;28;20556;-72
2022/12/17 22:36:27;;;;;;;69.28;46.65;;;-7.50;99.90;;;;;;4988555;28;20565;-72
2022/12/17 22:39:15;;;;;;;73.13;47.13;;;-7.40;99.90;;;;;;4995623;28;20214;-72
2022/12/17 22:45:10;;;;;;;71.75;47.20;;;-7.70;99.90;;;;;;4971082;28;20234;-74
2022/12/17 22:47:55;;;;;;;70.88;45.42;;;-7.60;99.90;;;;;;4990649;28;20206;-74
2022/12/17 22:50:43;;;;;;;68.00;46.70;;;-7.70;99.90;;;;;;4982678;28;20321;-74
2022/12/17 22:53:28;;;;;;;73.57;46.72;;;-7.70;99.90;;;;;;4981588;28;20270;-74
2022/12/17 22:56:14;;;;;;;72.75;46.67;;;-7.60;99.90;;;;;;4992795;28;20205;-75
2022/12/17 22:58:59;;;;;;;72.60;48.08;;;-7.60;99.90;;;;;;5002087;28;20526;-75
2022/12/17 23:01:45;;;;;;;74.97;47.85;;;-7.70;99.90;;;;;;4992289;28;20719;-74
2022/12/17 23:04:31;;;;;;;77.20;47.20;;;-7.70;99.90;;;;;;4985611;28;20516;-75
2022/12/17 23:07:18;;;;;;;69.45;44.72;;;-7.70;99.90;;;;;;4994751;28;20584;-74
2022/12/17 23:10:05;;;;;;;75.03;48.83;;;-7.70;99.90;;;;;;4985764;28;20215;-75
2022/12/17 23:12:53;;;;;;;74.15;46.38;;;-7.60;99.90;;;;;;4986501;28;20196;-75
2022/12/17 23:15:38;;;;;;;75.88;46.25;;;-7.50;99.90;;;;;;4995716;28;20203;-75
2022/12/17 23:18:24;;;;;;;77.75;48.13;;;-7.50;99.90;;;;;;4992574;28;20219;-75
2022/12/17 23:21:12;;;;;;;83.18;49.50;;;-7.60;99.90;;;;;;4988887;28;20224;-74
2022/12/17 23:23:59;;;;;;;81.15;52.55;;;-7.70;99.90;;;;;;4984987;28;20198;-74
2022/12/17 23:26:44;;;;;;;85.38;52.78;;;-7.70;99.90;;;;;;4984174;28;20702;-74
2022/12/17 23:29:30;;;;;;;87.57;52.08;;;-7.80;99.90;;;;;;4989645;28;20234;-75
2022/12/17 23:32:16;;;;;;;82.00;49.83;;;-8.00;99.90;;;;;;4980834;28;20239;-75
2022/12/17 23:35:01;;;;;;;78.20;50.45;;;-7.90;99.90;;;;;;4982556;28;20207;-74
2022/12/17 23:37:48;;;;;;;69.97;46.45;;;-7.90;99.90;;;;;;4988989;28;20211;-74
2022/12/17 23:40:35;;;;;;;74.45;45.80;;;-7.80;99.90;;;;;;4986465;28;20226;-75
2022/12/17 23:43:20;;;;;;;80.93;48.83;;;-7.70;99.90;;;;;;4981973;28;20441;-74
2022/12/17 23:46:08;;;;;;;71.13;47.17;;;-7.70;99.90;;;;;;4985704;28;20240;-74
2022/12/17 23:48:54;;;;;;;76.18;48.30;;;-7.70;99.90;;;;;;4986039;28;20250;-74
2022/12/17 23:51:40;;;;;;;75.75;47.08;;;-7.80;99.90;;;;;;4984258;28;20236;-75
2022/12/17 23:54:26;;;;;;;73.85;47.55;;;-7.80;99.90;;;;;;4989599;28;20265;-74
2022/12/17 23:57:13;;;;;;;77.97;47.08;;;-7.80;99.90;;;;;;4989659;28;20231;-75
2022/12/17 23:59:58;;;;;;;68.93;44.80;;;-7.80;99.90;;;;;;4985177;28;20222;-76
